Time;durP1;ratioP1;P1;durP2;ratioP2;P2;SDS_P1;SDS_P2;PMS_P1;PMS_P2;Temp;Humidity;BMP_temperature;BMP_pressure;BME280_temperature;BME280_humidity;BME280_pressure;Samples;Min_cycle;Max_cycle;Signal;HPM_P1;HPM_P2
2021/08/11 00:01:26;;;;;;;7.93;4.47;;;17.70;1.00;18.50;100787.00;;;;5093235;28;20472;-74
2021/08/11 00:03:55;;;;;;;8.03;5.10;;;17.70;1.00;18.50;100791.00;;;;5098194;28;20558;-74
2021/08/11 00:06:23;;;;;;;5.90;4.50;;;17.60;1.00;18.40;100805.00;;;;5090616;28;20449;-74
2021/08/11 00:08:51;;;;;;;7.23;5.20;;;17.60;1.00;18.30;100805.00;;;;5096996;28;20457;-74
2021/08/11 00:11:20;;;;;;;7.87;5.00;;;17.50;1.00;18.30;100801.00;;;;5110446;28;20456;-74
2021/08/11 00:13:48;;;;;;;8.63;5.10;;;17.40;1.00;18.30;100804.00;;;;5098491;28;20474;-74
2021/08/11 00:16:19;;;;;;;8.87;5.60;;;17.30;1.00;18.20;100796.00;;;;5097472;28;20477;-75
2021/08/11 00:18:47;;;;;;;9.50;5.73;;;17.30;1.00;18.20;100768.00;;;;5096360;28;20483;-75
2021/08/11 00:21:16;;;;;;;8.40;5.60;;;17.20;1.00;18.00;100811.00;;;;5097088;28;20524;-75
2021/08/11 00:23:45;;;;;;;5.93;5.33;;;17.10;1.00;18.00;100807.00;;;;5097081;28;20564;-76
2021/08/11 00:26:13;;;;;;;12.50;7.90;;;17.20;1.00;18.00;100808.00;;;;5096144;28;20488;-75
2021/08/11 00:28:42;;;;;;;9.83;6.10;;;17.10;1.00;18.00;100816.00;;;;5097971;28;21162;-74
2021/08/11 00:31:10;;;;;;;8.57;5.80;;;17.10;1.00;17.90;100715.00;;;;5099155;28;20484;-74
2021/08/11 00:33:40;;;;;;;6.50;5.80;;;17.00;1.00;17.90;100806.00;;;;5096229;28;20560;-75
2021/08/11 00:36:09;;;;;;;8.10;6.73;;;17.00;1.00;17.80;100803.00;;;;5097326;28;20572;-75
2021/08/11 00:38:38;;;;;;;6.83;5.70;;;16.90;1.00;17.80;100802.00;;;;5094538;28;20451;-75
2021/08/11 00:41:11;;;;;;;6.30;4.77;;;16.90;1.00;17.80;100804.00;;;;5110185;27;20454;-75
2021/08/11 00:43:40;;;;;;;6.90;5.87;;;16.80;1.00;17.70;100802.00;;;;5096317;28;20489;-75
2021/08/11 00:46:12;;;;;;;5.20;4.70;;;16.90;1.00;17.70;100822.00;;;;5096428;28;20963;-74
2021/08/11 00:48:42;;;;;;;7.30;5.67;;;16.70;1.00;17.70;100807.00;;;;5077967;28;20475;-75
2021/08/11 00:51:15;;;;;;;8.50;5.30;;;16.70;1.00;17.60;100807.00;;;;5094746;28;20988;-75
2021/08/11 00:53:48;;;;;;;6.53;5.57;;;16.90;1.00;17.70;100791.00;;;;5114167;27;21015;-76
2021/08/11 00:56:22;;;;;;;5.60;5.10;;;16.80;1.00;17.70;100803.00;;;;5094795;28;20470;-75
2021/08/11 00:58:52;;;;;;;5.87;5.27;;;16.80;1.00;17.70;100788.00;;;;5095428;28;20450;-76
2021/08/11 01:01:24;;;;;;;5.90;5.30;;;16.80;1.00;17.70;100803.00;;;;5093459;28;20480;-75
2021/08/11 01:03:57;;;;;;;6.10;5.50;;;16.80;1.00;17.70;100798.00;;;;5076524;28;21041;-75
2021/08/11 01:06:27;;;;;;;6.90;5.53;;;16.80;1.00;17.60;100791.00;;;;5096030;28;21030;-74
2021/08/11 01:08:58;;;;;;;6.47;5.00;;;16.80;1.00;17.70;100759.00;;;;5096502;28;20450;-74
2021/08/11 01:11:27;;;;;;;8.57;5.80;;;16.80;1.00;17.70;100788.00;;;;5100707;28;20449;-75
2021/08/11 01:13:57;;;;;;;6.67;5.60;;;16.80;1.00;17.60;100694.00;;;;5115000;28;20838;-75
2021/08/11 01:16:27;;;;;;;7.63;5.50;;;16.70;1.00;17.60;100765.00;;;;5120032;28;20476;-75
2021/08/11 01:18:58;;;;;;;7.40;5.60;;;16.70;1.00;17.60;100793.00;;;;5121379;28;20513;-74
2021/08/11 01:21:35;;;;;;;7.23;5.47;;;16.60;1.00;17.50;100802.00;;;;5110298;28;20443;-75
2021/08/11 01:24:17;;;;;;;8.53;5.90;;;16.50;1.00;17.40;100808.00;;;;5100267;28;20905;-76
2021/08/11 01:27:40;;;;;;;6.67;5.47;;;16.40;1.00;17.30;100802.00;;;;5077360;28;20458;-76
2021/08/11 01:30:15;;;;;;;7.87;6.20;;;16.40;1.00;17.30;100804.00;;;;5092281;28;20517;-76
2021/08/11 01:33:28;;;;;;;7.60;5.60;;;16.30;1.00;17.20;100816.00;;;;5094769;28;21583;-75
2021/08/11 01:36:03;;;;;;;7.13;6.20;;;16.30;1.00;17.20;100823.00;;;;5075667;28;20476;-75
2021/08/11 01:38:35;;;;;;;8.33;5.70;;;16.30;1.00;17.20;100828.00;;;;5092630;28;21382;-75
2021/08/11 01:41:06;;;;;;;8.83;6.10;;;16.40;1.00;17.20;100813.00;;;;5091030;28;20492;-75
2021/08/11 01:43:42;;;;;;;7.40;5.60;;;16.40;1.00;17.10;100809.00;;;;5089663;28;21002;-73
2021/08/11 01:46:13;;;;;;;8.77;6.30;;;16.30;1.00;16.90;100809.00;;;;5096194;28;20965;-73
2021/08/11 01:48:46;;;;;;;8.00;6.57;;;16.30;1.00;17.10;100772.00;;;;5093031;28;20464;-74
2021/08/11 01:51:15;;;;;;;6.90;6.20;;;16.30;1.00;17.10;100816.00;;;;5092568;28;20552;-74
2021/08/11 01:53:44;;;;;;;8.10;6.03;;;16.30;1.00;17.10;100793.00;;;;5098128;28;20553;-76
2021/08/11 01:56:17;;;;;;;5.90;5.30;;;16.30;1.00;17.00;100817.00;;;;5075103;28;20493;-75
2021/08/11 01:58:51;;;;;;;6.63;5.77;;;16.20;1.00;17.00;100801.00;;;;5093439;28;20461;-74
2021/08/11 02:01:22;;;;;;;7.57;6.20;;;16.10;1.00;16.90;100773.00;;;;5091211;28;20462;-75
2021/08/11 02:03:53;;;;;;;7.50;6.53;;;16.00;1.00;16.90;100813.00;;;;5092407;28;20489;-74
2021/08/11 02:06:22;;;;;;;7.27;6.07;;;16.00;1.00;16.90;100793.00;;;;5113541;28;20453;-75
2021/08/11 02:08:58;;;;;;;9.87;6.53;;;15.90;1.00;16.80;100798.00;;;;5118885;28;20441;-75
2021/08/11 02:11:27;;;;;;;9.83;6.70;;;15.90;1.00;16.80;100799.00;;;;5117739;28;20476;-74
2021/08/11 02:13:57;;;;;;;7.00;6.20;;;15.90;1.00;16.80;100807.00;;;;5120559;28;20479;-74
2021/08/11 02:16:26;;;;;;;12.57;7.00;;;15.80;1.00;16.80;100796.00;;;;5104980;28;20473;-75
2021/08/11 02:18:58;;;;;;;9.27;6.30;;;15.80;1.00;16.70;100797.00;;;;5100093;28;20523;-75
2021/08/11 02:21:26;;;;;;;8.53;6.00;;;15.70;1.00;16.70;100784.00;;;;5104198;28;20458;-75
2021/08/11 02:23:56;;;;;;;6.57;5.93;;;15.70;1.00;16.60;100801.00;;;;5090549;28;20482;-74
2021/08/11 02:26:35;;;;;;;6.17;5.57;;;15.70;1.00;16.60;100769.00;;;;5106889;28;20552;-76
2021/08/11 02:29:12;;;;;;;6.87;5.77;;;15.70;1.00;16.60;100756.00;;;;5102333;28;20472;-75
2021/08/11 02:31:49;;;;;;;9.50;5.70;;;15.70;1.00;16.60;100767.00;;;;5097162;28;20454;-75
2021/08/11 02:34:36;;;;;;;7.50;5.87;;;15.70;1.00;16.50;100805.00;;;;5094428;28;20462;-76
2021/08/11 02:37:13;;;;;;;6.97;6.03;;;15.60;1.00;16.50;100795.00;;;;5092530;28;20559;-75
2021/08/11 02:39:50;;;;;;;6.43;5.83;;;15.70;1.00;16.50;100801.00;;;;5094146;28;20460;-75
2021/08/11 02:42:34;;;;;;;7.23;5.73;;;15.70;1.00;16.50;100806.00;;;;5109850;27;20450;-76
2021/08/11 02:45:05;;;;;;;8.20;5.73;;;15.60;1.00;16.40;100809.00;;;;5108479;27;20485;-75
2021/08/11 02:47:38;;;;;;;7.23;5.63;;;15.50;1.00;16.40;100780.00;;;;5091659;28;20544;-76
2021/08/11 02:50:10;;;;;;;5.80;4.80;;;15.50;1.00;16.40;100800.00;;;;5106819;27;21394;-75
2021/08/11 02:52:46;;;;;;;6.00;5.37;;;15.50;1.00;16.40;100809.00;;;;5089473;28;20551;-75
2021/08/11 02:55:16;;;;;;;8.67;5.70;;;15.60;1.00;16.40;100791.00;;;;5093005;28;20613;-75
2021/08/11 02:57:47;;;;;;;10.40;6.67;;;15.60;1.00;16.40;100781.00;;;;5091818;28;20469;-75
2021/08/11 03:00:16;;;;;;;6.80;6.10;;;15.60;1.00;16.40;100801.00;;;;5093007;28;20456;-75
2021/08/11 03:02:45;;;;;;;8.03;6.10;;;15.60;1.00;16.40;100805.00;;;;5093319;28;20460;-76
2021/08/11 03:05:16;;;;;;;8.70;6.07;;;15.50;1.00;16.40;100801.00;;;;5094870;28;20506;-75
2021/08/11 03:07:46;;;;;;;6.87;6.27;;;15.50;1.00;16.30;100785.00;;;;5092563;28;20518;-76
2021/08/11 03:10:14;;;;;;;8.00;6.80;;;15.40;1.00;16.30;100786.00;;;;5092761;28;20580;-75
2021/08/11 03:12:46;;;;;;;7.80;6.17;;;15.40;1.00;16.30;100782.00;;;;5095751;28;20453;-76
2021/08/11 03:15:17;;;;;;;6.90;5.47;;;15.30;1.00;16.30;100802.00;;;;5115679;28;20542;-75
2021/08/11 03:17:49;;;;;;;6.60;5.93;;;15.40;1.00;16.30;100791.00;;;;5104995;28;20568;-75
2021/08/11 03:20:20;;;;;;;8.37;6.50;;;15.40;1.00;16.30;100805.00;;;;5123768;28;20502;-74
2021/08/11 03:22:48;;;;;;;7.43;6.13;;;15.40;1.00;16.30;100795.00;;;;5098083;28;20442;-75
2021/08/11 03:25:17;;;;;;;7.77;5.80;;;15.50;1.00;16.30;100805.00;;;;5091711;28;20474;-75
2021/08/11 03:27:46;;;;;;;8.60;6.20;;;15.50;1.00;16.30;100802.00;;;;5096027;28;20543;-75
2021/08/11 03:30:18;;;;;;;7.17;5.93;;;15.50;1.00;16.30;100808.00;;;;5105030;27;20438;-75
2021/08/11 03:32:48;;;;;;;8.43;6.33;;;15.50;1.00;16.30;100808.00;;;;5092289;28;20462;-74
2021/08/11 03:35:19;;;;;;;6.07;5.13;;;15.60;1.00;16.30;100799.00;;;;5094572;28;20469;-74
2021/08/11 03:37:47;;;;;;;7.23;6.30;;;15.50;1.00;16.30;100815.00;;;;5088307;28;20574;-75
2021/08/11 03:40:17;;;;;;;8.37;6.40;;;15.50;1.00;16.20;100810.00;;;;5089397;28;20568;-75
2021/08/11 03:42:46;;;;;;;7.13;6.43;;;15.50;1.00;16.20;100815.00;;;;5091935;28;20471;-74
2021/08/11 03:45:16;;;;;;;6.87;6.20;;;15.50;1.00;16.30;100797.00;;;;5096080;28;20914;-75
2021/08/11 03:47:45;;;;;;;8.33;5.90;;;15.60;1.00;16.20;100771.00;;;;5089363;28;20454;-75
2021/08/11 03:50:14;;;;;;;8.23;6.63;;;15.60;1.00;16.30;100785.00;;;;5093518;28;20529;-74
2021/08/11 03:52:47;;;;;;;7.63;6.10;;;15.60;1.00;16.30;100784.00;;;;5087516;28;20453;-74
2021/08/11 03:55:21;;;;;;;8.73;6.00;;;15.70;1.00;16.40;100819.00;;;;5100619;28;20992;-74
2021/08/11 03:57:49;;;;;;;8.23;5.90;;;15.70;1.00;16.40;100797.00;;;;5090782;28;20998;-75
2021/08/11 04:00:18;;;;;;;10.23;6.20;;;15.70;1.00;16.40;100808.00;;;;5092454;28;20491;-75
2021/08/11 04:02:47;;;;;;;6.53;5.80;;;15.80;1.00;16.50;100797.00;;;;5094409;28;20522;-74
2021/08/11 04:05:16;;;;;;;8.93;5.90;;;15.80;1.00;16.50;100803.00;;;;5089106;28;22784;-74
2021/08/11 04:07:46;;;;;;;9.50;6.20;;;15.80;1.00;16.60;100808.00;;;;5097677;28;21070;-74
2021/08/11 04:10:14;;;;;;;8.20;5.80;;;15.80;1.00;16.50;100808.00;;;;5088068;28;20487;-74
2021/08/11 04:12:43;;;;;;;7.40;6.60;;;15.80;1.00;16.50;100815.00;;;;5091675;28;20472;-74
2021/08/11 04:15:12;;;;;;;5.90;4.97;;;15.80;1.00;16.50;100810.00;;;;5093375;28;20497;-74
2021/08/11 04:17:40;;;;;;;7.00;5.53;;;15.80;1.00;16.50;100790.00;;;;5088049;28;20490;-74
2021/08/11 04:20:10;;;;;;;7.50;6.10;;;15.80;1.00;16.50;100804.00;;;;5091700;28;20547;-75
2021/08/11 04:22:39;;;;;;;10.27;6.30;;;15.80;1.00;16.50;100822.00;;;;5096642;28;21012;-75
2021/08/11 04:25:09;;;;;;;7.57;6.77;;;15.90;1.00;16.60;100811.00;;;;5088857;28;20647;-75
2021/08/11 04:27:37;;;;;;;11.53;6.63;;;15.90;1.00;16.60;100825.00;;;;5091369;28;20466;-75
2021/08/11 04:30:08;;;;;;;8.40;5.80;;;15.90;1.00;16.70;100816.00;;;;5089356;28;20461;-74
2021/08/11 04:32:36;;;;;;;7.90;6.20;;;15.90;1.00;16.70;100827.00;;;;5097081;28;20485;-76
2021/08/11 04:35:07;;;;;;;8.83;5.63;;;16.10;1.00;16.80;100854.00;;;;5087485;28;21271;-75
2021/08/11 04:37:36;;;;;;;11.23;6.77;;;16.10;1.00;16.90;100829.00;;;;5091917;28;20470;-76
2021/08/11 04:40:06;;;;;;;10.27;6.40;;;16.10;1.00;17.00;100843.00;;;;5089264;28;20488;-74
2021/08/11 04:42:36;;;;;;;9.77;6.47;;;16.10;1.00;17.00;100830.00;;;;5090805;28;20461;-75
2021/08/11 04:45:06;;;;;;;8.20;5.60;;;16.10;1.00;17.10;100837.00;;;;5094370;28;20537;-74
2021/08/11 04:47:34;;;;;;;6.87;5.67;;;16.20;1.00;17.00;100792.00;;;;5091420;28;20462;-75
2021/08/11 04:50:03;;;;;;;12.50;6.50;;;16.20;1.00;17.00;100824.00;;;;5091893;28;20472;-74
2021/08/11 04:52:32;;;;;;;9.90;7.37;;;16.10;1.00;17.00;100821.00;;;;5090016;28;20447;-75
2021/08/11 04:55:03;;;;;;;8.20;6.53;;;16.20;1.00;17.10;100829.00;;;;5091090;28;20470;-77
2021/08/11 04:57:31;;;;;;;7.63;6.60;;;16.20;1.00;17.10;100788.00;;;;5092092;28;20469;-75
2021/08/11 05:00:01;;;;;;;9.17;5.90;;;16.20;1.00;17.20;100829.00;;;;5092864;28;20495;-75
2021/08/11 05:02:30;;;;;;;8.40;6.37;;;16.30;1.00;17.30;100831.00;;;;5092566;28;20465;-75
2021/08/11 05:04:58;;;;;;;7.23;6.27;;;16.40;1.00;17.30;100849.00;;;;5099976;28;20466;-75
2021/08/11 05:07:27;;;;;;;7.20;6.50;;;16.40;1.00;17.40;100855.00;;;;5093990;28;20461;-75
2021/08/11 05:09:56;;;;;;;9.03;6.93;;;16.50;1.00;17.50;100827.00;;;;5091326;28;20454;-74
2021/08/11 05:12:24;;;;;;;10.73;7.13;;;16.50;1.00;17.50;100848.00;;;;5093461;28;21198;-74
2021/08/11 05:14:53;;;;;;;10.53;6.70;;;16.60;1.00;17.60;100850.00;;;;5096952;28;20966;-74
2021/08/11 05:17:23;;;;;;;9.13;7.87;;;16.70;1.00;17.60;100866.00;;;;5094487;28;20873;-74
2021/08/11 05:19:53;;;;;;;7.93;7.13;;;16.70;1.00;17.80;100860.00;;;;5099887;28;20514;-74
2021/08/11 05:22:23;;;;;;;9.83;7.00;;;16.80;1.00;17.80;100863.00;;;;5117889;28;20410;-74
2021/08/11 05:24:52;;;;;;;13.10;8.03;;;16.90;1.00;17.90;100864.00;;;;5114853;28;20465;-75
2021/08/11 05:27:20;;;;;;;8.20;7.23;;;17.00;1.00;18.00;100868.00;;;;5125437;28;20446;-75
2021/08/11 05:29:49;;;;;;;9.53;6.87;;;17.10;1.00;18.10;100867.00;;;;5104231;28;20460;-76
2021/08/11 05:32:17;;;;;;;10.63;7.60;;;17.20;1.00;18.10;100868.00;;;;5100574;28;20906;-75
2021/08/11 05:34:47;;;;;;;7.83;6.97;;;17.20;1.00;18.20;100863.00;;;;5096365;28;20504;-75
2021/08/11 05:37:15;;;;;;;8.13;6.10;;;17.20;1.00;18.30;100861.00;;;;5097207;28;20519;-75
2021/08/11 05:39:43;;;;;;;7.90;6.87;;;17.30;1.00;18.40;100870.00;;;;5094923;28;20466;-75
2021/08/11 05:42:12;;;;;;;11.67;7.20;;;17.40;1.00;18.40;100868.00;;;;5102469;28;20550;-75
2021/08/11 05:44:40;;;;;;;8.23;7.40;;;17.50;1.00;18.40;100861.00;;;;5095423;28;20478;-74
2021/08/11 05:47:09;;;;;;;11.97;9.30;;;17.50;1.00;18.50;100873.00;;;;5099747;28;20493;-75
2021/08/11 05:49:37;;;;;;;11.47;9.43;;;17.50;1.00;18.60;100870.00;;;;5098308;28;20462;-75
2021/08/11 05:52:07;;;;;;;11.93;9.47;;;17.60;1.00;18.60;100854.00;;;;5097849;28;20496;-75
2021/08/11 05:54:37;;;;;;;12.00;9.03;;;17.70;1.00;18.70;100889.00;;;;5096889;28;20550;-75
2021/08/11 05:57:08;;;;;;;11.13;8.33;;;17.80;1.00;18.80;100890.00;;;;5099542;28;20457;-78
2021/08/11 05:59:37;;;;;;;9.70;8.80;;;17.90;1.00;18.90;100881.00;;;;5096019;28;20490;-75
2021/08/11 06:02:06;;;;;;;12.10;10.63;;;17.90;1.00;19.00;100868.00;;;;5104453;28;20540;-75
2021/08/11 06:04:39;;;;;;;8.77;7.83;;;18.00;1.00;19.10;100902.00;;;;5094826;28;20509;-75
2021/08/11 06:07:10;;;;;;;14.37;8.43;;;18.10;1.00;19.10;100875.00;;;;5099530;28;20453;-75
2021/08/11 06:09:38;;;;;;;11.30;7.80;;;18.20;1.00;19.20;100894.00;;;;5093275;28;20462;-75
2021/08/11 06:12:07;;;;;;;12.37;7.90;;;18.30;1.00;19.30;100890.00;;;;5095154;28;21457;-74
2021/08/11 06:14:36;;;;;;;12.37;8.70;;;18.30;1.00;19.30;100886.00;;;;5099185;28;20477;-74
2021/08/11 06:17:04;;;;;;;15.47;8.67;;;18.40;1.00;19.40;100896.00;;;;5116637;28;20446;-75
2021/08/11 06:19:33;;;;;;;10.57;8.10;;;18.50;1.00;19.50;100866.00;;;;5124545;28;20553;-75
2021/08/11 06:22:01;;;;;;;9.20;7.70;;;18.60;1.00;19.60;100885.00;;;;5119527;28;20442;-74
2021/08/11 06:24:31;;;;;;;9.60;7.53;;;18.60;1.00;19.70;100891.00;;;;5115087;28;20474;-75
2021/08/11 06:26:59;;;;;;;7.50;6.43;;;18.80;1.00;19.90;100885.00;;;;5098457;28;20539;-75
2021/08/11 06:29:27;;;;;;;8.00;6.70;;;18.90;1.00;19.90;100879.00;;;;5097401;28;20468;-76
2021/08/11 06:31:56;;;;;;;8.20;6.43;;;19.00;1.00;20.00;100892.00;;;;5096821;28;20459;-76
2021/08/11 06:34:25;;;;;;;7.37;6.17;;;19.10;1.00;20.10;100875.00;;;;5096782;28;20902;-76
2021/08/11 06:36:56;;;;;;;9.60;6.87;;;19.30;1.00;20.20;100893.00;;;;5099260;27;20489;-76
2021/08/11 06:39:26;;;;;;;9.93;7.03;;;19.40;1.00;20.30;100871.00;;;;5095703;28;20476;-74
2021/08/11 06:41:56;;;;;;;8.50;6.30;;;19.50;1.00;20.40;100890.00;;;;5092907;28;20455;-75
2021/08/11 06:44:35;;;;;;;11.47;6.90;;;19.60;1.00;20.40;100853.00;;;;5094546;28;20507;-74
2021/08/11 06:47:07;;;;;;;8.20;6.40;;;19.70;1.00;20.40;100886.00;;;;5096948;28;20533;-74
2021/08/11 06:49:36;;;;;;;7.73;6.93;;;19.70;1.00;20.50;100883.00;;;;5095076;28;20461;-74
2021/08/11 06:52:05;;;;;;;10.90;8.27;;;19.80;1.00;20.50;100869.00;;;;5100824;28;20641;-74
2021/08/11 06:54:33;;;;;;;12.03;9.03;;;19.80;1.00;20.60;100871.00;;;;5094651;28;20482;-75
2021/08/11 06:57:04;;;;;;;10.73;7.97;;;19.90;1.00;20.70;100868.00;;;;5113978;27;20489;-75
2021/08/11 06:59:32;;;;;;;10.13;8.30;;;20.00;1.00;20.80;100877.00;;;;5091791;28;20561;-74
2021/08/11 07:02:00;;;;;;;10.33;9.10;;;20.10;1.00;20.90;100871.00;;;;5098188;28;20472;-75
2021/08/11 07:04:29;;;;;;;8.70;7.60;;;20.20;1.00;21.00;100859.00;;;;5096404;28;20484;-75
2021/08/11 07:06:57;;;;;;;9.13;8.20;;;20.30;1.00;21.10;100878.00;;;;5095803;28;20464;-75
2021/08/11 07:09:26;;;;;;;10.00;7.80;;;20.30;1.00;21.20;100881.00;;;;5096750;28;20450;-75
2021/08/11 07:11:54;;;;;;;11.00;8.67;;;20.50;1.00;21.40;100875.00;;;;5093623;28;20461;-75
2021/08/11 07:14:24;;;;;;;12.23;8.93;;;20.70;1.00;21.50;100865.00;;;;5091560;28;20482;-75
2021/08/11 07:16:52;;;;;;;9.90;7.87;;;20.80;1.00;21.60;100862.00;;;;5090117;28;20450;-75
2021/08/11 07:19:21;;;;;;;10.90;9.10;;;20.90;1.00;21.60;100869.00;;;;5095507;28;20482;-75
2021/08/11 07:21:49;;;;;;;13.20;10.30;;;20.90;1.00;21.70;100863.00;;;;5094451;28;20491;-75
2021/08/11 07:24:18;;;;;;;12.30;9.37;;;21.00;1.00;21.80;100873.00;;;;5073910;28;20483;-75
2021/08/11 07:26:47;;;;;;;13.00;8.50;;;21.10;1.00;21.80;100853.00;;;;5118309;28;20452;-75
2021/08/11 07:29:15;;;;;;;14.13;8.70;;;21.30;1.00;21.90;100880.00;;;;5107202;28;20642;-74
2021/08/11 07:31:46;;;;;;;13.53;8.67;;;21.40;1.00;21.90;100890.00;;;;5134675;27;20433;-74
2021/08/11 07:34:15;;;;;;;15.30;7.70;;;21.40;1.00;22.00;100886.00;;;;5102152;28;20485;-75
2021/08/11 07:36:43;;;;;;;9.30;6.03;;;21.50;1.00;22.20;100894.00;;;;5093105;28;20465;-76
2021/08/11 07:39:12;;;;;;;6.57;5.07;;;21.70;1.00;22.30;100892.00;;;;5093013;28;20777;-73
2021/08/11 07:41:41;;;;;;;7.50;5.70;;;21.90;1.00;22.50;100888.00;;;;5092936;28;20476;-75
2021/08/11 07:44:09;;;;;;;6.93;5.90;;;21.90;1.00;22.50;100898.00;;;;5089239;28;20474;-75
2021/08/11 07:46:37;;;;;;;8.53;5.77;;;22.00;1.00;22.50;100899.00;;;;5088488;28;20450;-75
2021/08/11 07:49:07;;;;;;;7.43;5.67;;;22.00;1.00;22.60;100875.00;;;;5097804;28;20461;-76
2021/08/11 07:51:36;;;;;;;5.57;4.90;;;22.00;1.00;22.50;100908.00;;;;5094019;28;20472;-75
2021/08/11 07:54:04;;;;;;;6.50;5.63;;;22.00;1.00;22.40;100876.00;;;;5092654;28;20476;-75
2021/08/11 07:56:33;;;;;;;8.50;5.30;;;21.90;1.00;22.30;100878.00;;;;5094946;27;21180;-75
2021/08/11 07:59:01;;;;;;;6.50;4.80;;;21.90;1.00;22.30;100878.00;;;;5094808;28;21071;-76
2021/08/11 08:01:29;;;;;;;8.20;5.40;;;21.90;1.00;22.50;100910.00;;;;5095809;28;20499;-75
2021/08/11 08:03:58;;;;;;;9.47;5.30;;;22.10;1.00;22.50;100909.00;;;;5092040;28;20581;-75
2021/08/11 08:06:28;;;;;;;7.40;4.97;;;22.10;1.00;22.60;100911.00;;;;5091542;28;20456;-74
2021/08/11 08:08:56;;;;;;;5.63;4.70;;;22.20;1.00;22.70;100906.00;;;;5091619;28;20446;-73
2021/08/11 08:11:24;;;;;;;6.77;4.77;;;22.40;1.00;22.80;100912.00;;;;5084497;28;20513;-76
2021/08/11 08:13:53;;;;;;;5.70;4.90;;;22.50;1.00;22.80;100915.00;;;;5092019;28;20576;-75
2021/08/11 08:16:21;;;;;;;6.00;5.00;;;22.50;1.00;22.90;100908.00;;;;5091521;28;21206;-73
2021/08/11 08:18:50;;;;;;;5.90;4.53;;;22.60;1.00;23.00;100912.00;;;;5094152;28;20531;-74
2021/08/11 08:21:18;;;;;;;6.90;5.90;;;22.70;1.00;23.00;100907.00;;;;5095480;28;20450;-75
2021/08/11 08:23:48;;;;;;;5.00;4.03;;;22.80;1.00;23.10;100906.00;;;;5094389;28;20604;-74
2021/08/11 08:26:16;;;;;;;5.77;4.20;;;22.90;1.00;23.10;100908.00;;;;5093371;28;20466;-75
2021/08/11 08:28:48;;;;;;;7.37;4.73;;;23.00;1.00;23.20;100901.00;;;;5095915;28;20883;-75
2021/08/11 08:31:17;;;;;;;8.17;4.40;;;23.00;1.00;23.20;100898.00;;;;5090071;28;20904;-74
2021/08/11 08:33:45;;;;;;;6.23;4.60;;;23.00;1.00;23.10;100856.00;;;;5091692;28;20506;-75
2021/08/11 08:36:14;;;;;;;7.13;4.37;;;22.90;1.00;23.20;100910.00;;;;5093006;28;20457;-76
2021/08/11 08:38:42;;;;;;;7.90;4.40;;;22.90;1.00;23.30;100917.00;;;;5086570;28;20493;-75
2021/08/11 08:41:14;;;;;;;6.13;3.50;;;23.00;1.00;23.40;100906.00;;;;5104515;28;20481;-74
2021/08/11 08:43:42;;;;;;;8.57;4.27;;;23.20;1.00;23.40;100906.00;;;;5091155;28;20473;-74
2021/08/11 08:46:12;;;;;;;4.90;3.53;;;23.20;1.00;23.60;100911.00;;;;5092516;28;20469;-74
2021/08/11 08:48:41;;;;;;;6.47;4.30;;;23.40;1.00;23.70;100896.00;;;;5086126;28;20460;-74
2021/08/11 08:51:12;;;;;;;8.63;3.90;;;23.60;1.00;23.70;100882.00;;;;5085787;28;20453;-75
2021/08/11 08:53:42;;;;;;;5.97;3.80;;;23.50;1.00;23.50;100903.00;;;;5092293;28;20565;-74
2021/08/11 08:56:12;;;;;;;5.13;3.40;;;23.30;1.00;23.70;100895.00;;;;5094547;28;21062;-75
2021/08/11 08:58:42;;;;;;;7.23;4.20;;;23.50;1.00;23.80;100896.00;;;;5097213;28;20544;-75
2021/08/11 09:01:10;;;;;;;6.27;4.00;;;23.60;1.00;23.90;100900.00;;;;5092320;28;20484;-74
2021/08/11 09:03:39;;;;;;;6.83;4.37;;;23.70;1.00;24.00;100918.00;;;;5093678;28;20465;-75
2021/08/11 09:06:08;;;;;;;4.80;3.73;;;23.90;1.00;24.00;100916.00;;;;5093269;28;20981;-75
2021/08/11 09:08:37;;;;;;;5.23;4.40;;;23.90;1.00;24.10;100908.00;;;;5104847;28;20458;-74
2021/08/11 09:11:16;;;;;;;7.43;4.77;;;23.90;1.00;24.20;100908.00;;;;5099404;28;20484;-74
2021/08/11 09:13:44;;;;;;;5.63;4.20;;;24.10;1.00;24.40;100886.00;;;;5096904;28;20464;-74
2021/08/11 09:16:15;;;;;;;5.30;4.00;;;24.30;1.00;24.50;100908.00;;;;5098712;28;20464;-76
2021/08/11 09:18:53;;;;;;;5.73;4.40;;;24.40;1.00;24.60;100897.00;;;;5099995;28;20450;-74
2021/08/11 09:21:21;;;;;;;9.23;4.03;;;24.40;1.00;24.50;100915.00;;;;5096064;28;20469;-74
2021/08/11 09:23:49;;;;;;;9.93;4.63;;;24.30;1.00;24.50;100901.00;;;;5093423;28;20533;-75
2021/08/11 09:26:19;;;;;;;7.23;4.70;;;24.30;1.00;24.60;100910.00;;;;5111910;28;20483;-76
2021/08/11 09:28:48;;;;;;;6.20;4.03;;;24.40;1.00;24.70;100905.00;;;;5110702;28;20510;-74
2021/08/11 09:31:26;;;;;;;4.83;3.70;;;24.60;1.00;24.90;100887.00;;;;5107322;28;20544;-75
2021/08/11 09:33:59;;;;;;;5.43;4.13;;;24.70;1.00;25.00;100898.00;;;;5102669;28;21008;-75
2021/08/11 09:36:28;;;;;;;5.17;4.67;;;24.90;1.00;25.10;100903.00;;;;5098629;28;20627;-75
2021/08/11 09:39:00;;;;;;;5.67;3.80;;;24.90;1.00;25.00;100887.00;;;;5094047;28;20493;-75
2021/08/11 09:41:30;;;;;;;5.10;3.83;;;24.90;1.00;25.10;100904.00;;;;5094658;28;20549;-75
2021/08/11 09:44:09;;;;;;;5.63;4.33;;;25.10;1.00;25.20;100879.00;;;;5100442;28;20486;-73
2021/08/11 09:46:40;;;;;;;6.00;3.93;;;25.20;1.00;25.30;100899.00;;;;5098687;28;20538;-74
2021/08/11 09:49:17;;;;;;;5.70;4.10;;;25.30;1.00;25.30;100911.00;;;;5098950;28;20456;-75
2021/08/11 09:51:58;;;;;;;6.60;4.13;;;25.30;1.00;25.30;100901.00;;;;5094485;28;20477;-75
2021/08/11 09:54:28;;;;;;;7.30;3.77;;;25.20;1.00;25.30;100808.00;;;;5092157;28;21303;-75
2021/08/11 09:56:59;;;;;;;3.93;2.93;;;25.40;1.00;25.50;100905.00;;;;5090543;28;20883;-76
2021/08/11 09:59:27;;;;;;;4.13;3.73;;;25.60;1.00;25.60;100909.00;;;;5092754;28;20490;-75
2021/08/11 10:02:17;;;;;;;5.50;3.60;;;25.70;1.00;25.70;100905.00;;;;5092765;28;20473;-75
2021/08/11 10:04:46;;;;;;;5.40;3.50;;;25.90;1.00;25.40;100898.00;;;;5097193;28;20484;-75
2021/08/11 10:07:14;;;;;;;4.93;3.77;;;25.50;1.00;25.20;100867.00;;;;5131806;27;20839;-77
2021/08/11 10:09:43;;;;;;;6.20;3.30;;;25.20;1.00;25.50;100892.00;;;;5113936;28;20544;-76
2021/08/11 10:15:07;;;;;;;3.90;3.50;;;25.40;1.00;25.70;100885.00;;;;5144372;27;20650;-75
2021/08/11 10:17:36;;;;;;;4.67;3.73;;;25.60;1.00;25.90;100845.00;;;;5098427;28;20527;-76
2021/08/11 10:20:07;;;;;;;6.33;5.37;;;25.90;1.00;26.20;100901.00;;;;5094168;28;20494;-75
2021/08/11 10:22:39;;;;;;;6.57;3.73;;;26.20;1.00;26.40;100900.00;;;;5075386;28;21515;-76
2021/08/11 10:25:09;;;;;;;5.13;3.10;;;26.40;1.00;26.20;100897.00;;;;5071138;28;20496;-76
2021/08/11 10:27:39;;;;;;;5.63;3.33;;;26.20;1.00;26.50;100907.00;;;;5088810;28;20446;-76
2021/08/11 10:30:12;;;;;;;3.73;3.37;;;26.30;1.00;26.60;100887.00;;;;5092699;28;20442;-76
2021/08/11 10:32:41;;;;;;;4.67;3.33;;;26.30;1.00;26.50;100891.00;;;;5077399;28;20519;-76
2021/08/11 10:35:11;;;;;;;4.33;3.37;;;26.10;1.00;26.60;100899.00;;;;5090522;28;20572;-76
2021/08/11 10:37:40;;;;;;;4.20;2.90;;;26.20;1.00;26.60;100908.00;;;;5093661;28;20452;-76
2021/08/11 10:40:11;;;;;;;5.23;3.23;;;26.40;1.00;26.80;100889.00;;;;5091181;28;20441;-76
2021/08/11 10:42:39;;;;;;;5.80;3.00;;;26.60;1.00;26.90;100884.00;;;;5093820;28;20461;-77
2021/08/11 10:45:10;;;;;;;7.40;3.30;;;26.90;1.00;27.00;100901.00;;;;5075729;28;20470;-76
2021/08/11 10:47:39;;;;;;;3.77;3.00;;;27.00;1.00;26.90;100892.00;;;;5086042;28;20442;-77
2021/08/11 10:50:09;;;;;;;5.77;3.57;;;26.80;1.00;26.80;100889.00;;;;5091368;28;20441;-76
2021/08/11 10:52:37;;;;;;;2.93;2.63;;;26.70;1.00;26.70;100893.00;;;;5086287;28;20549;-76
2021/08/11 10:55:08;;;;;;;2.90;2.60;;;26.60;1.00;26.70;100886.00;;;;5092521;28;20493;-76
2021/08/11 10:57:47;;;;;;;3.10;2.57;;;26.80;1.00;26.90;100864.00;;;;5097569;28;20451;-76
2021/08/11 11:00:41;;;;;;;3.77;2.73;;;26.80;1.00;27.00;100879.00;;;;5083806;28;20509;-76
2021/08/11 11:03:11;;;;;;;3.90;2.60;;;27.00;1.00;27.10;100887.00;;;;5107768;28;20444;-76
2021/08/11 11:05:54;;;;;;;5.13;2.87;;;27.10;1.00;27.10;100890.00;;;;5089697;28;20477;-77
2021/08/11 11:08:44;;;;;;;3.70;2.77;;;27.10;1.00;27.30;100843.00;;;;5092782;28;20459;-77
2021/08/11 11:11:37;;;;;;;3.77;2.70;;;27.20;1.00;27.40;100870.00;;;;5068180;28;20773;-77